Time;durP1;ratioP1;P1;durP2;ratioP2;P2;SDS_P1;SDS_P2;PMS_P1;PMS_P2;Temp;Humidity;BMP_temperature;BMP_pressure;BME280_temperature;BME280_humidity;BME280_pressure;Samples;Min_cycle;Max_cycle;Signal;HPM_P1;HPM_P2
2024/04/15 00:01:46;;;;;;;;;;;;;;;16.99;51.83;101393.16;5384680;26;19925;-86
2024/04/15 00:04:11;;;;;;;;;;;;;;;16.99;51.75;101396.59;5355665;26;19925;-85
2024/04/15 00:06:37;;;;;;;;;;;;;;;16.83;52.40;101391.53;5384705;26;19994;-85
2024/04/15 00:09:02;;;;;;;;;;;;;;;16.87;52.69;101393.00;5384681;26;20355;-85
2024/04/15 00:11:27;;;;;;;;;;;;;;;16.89;52.87;101392.88;5384351;26;19949;-85
2024/04/15 00:13:53;;;;;;;;;;;;;;;16.91;52.74;101389.25;5384670;26;19925;-86
2024/04/15 00:16:18;;;;;;;;;;;;;;;16.94;52.79;101384.78;5384674;26;19994;-85
2024/04/15 00:18:43;;;;;;;;;;;;;;;16.90;52.64;101387.56;5384406;26;20351;-85
2024/04/15 00:21:10;;;;;;;;;;;;;;;16.86;52.90;101380.88;5384695;26;20250;-85
2024/04/15 00:23:35;;;;;;;;;;;;;;;16.88;53.18;101383.38;5355497;26;19994;-86
2024/04/15 00:26:01;;;;;;;;;;;;;;;16.71;53.98;101373.97;5385105;26;19925;-86
2024/04/15 00:28:27;;;;;;;;;;;;;;;16.72;54.04;101373.06;5388372;26;19998;-85
2024/04/15 00:30:52;;;;;;;;;;;;;;;16.75;54.05;101366.81;5358816;26;19925;-85
2024/04/15 00:33:18;;;;;;;;;;;;;;;16.73;54.05;101368.69;5388248;26;19925;-86
2024/04/15 00:35:43;;;;;;;;;;;;;;;16.72;53.68;101367.00;5387951;26;19925;-86
2024/04/15 00:38:09;;;;;;;;;;;;;;;16.67;53.63;101364.63;5387733;26;19925;-86
2024/04/15 00:40:34;;;;;;;;;;;;;;;16.64;53.93;101370.91;5358181;26;19932;-86
2024/04/15 00:43:00;;;;;;;;;;;;;;;16.47;54.00;101368.47;5387657;26;19924;-85
2024/04/15 00:45:29;;;;;;;;;;;;;;;16.39;54.52;101369.88;5387802;26;19937;-86
2024/04/15 00:47:55;;;;;;;;;;;;;;;16.37;54.16;101369.97;5387679;26;19936;-86
2024/04/15 00:50:20;;;;;;;;;;;;;;;16.29;54.60;101374.81;5387617;26;19925;-85
2024/04/15 00:52:45;;;;;;;;;;;;;;;16.21;55.06;101372.69;5387691;26;19924;-85
2024/04/15 00:55:11;;;;;;;;;;;;;;;16.19;55.62;101364.09;5387267;26;19925;-86
2024/04/15 00:57:36;;;;;;;;;;;;;;;16.23;55.39;101360.41;5358439;26;19944;-85
2024/04/15 01:00:01;;;;;;;;;;;;;;;16.21;55.26;101362.22;5387471;26;19932;-85
2024/04/15 01:02:27;;;;;;;;;;;;;;;16.14;55.12;101366.16;5387565;26;19925;-85
2024/04/15 01:04:52;;;;;;;;;;;;;;;16.12;55.09;101354.97;5387458;26;19935;-85
2024/04/15 01:07:18;;;;;;;;;;;;;;;16.05;56.08;101361.50;5358281;26;19925;-85
2024/04/15 01:09:44;;;;;;;;;;;;;;;16.00;56.77;101358.31;5387423;26;20340;-85
2024/04/15 01:12:09;;;;;;;;;;;;;;;15.98;57.69;101358.41;5387282;26;20020;-85
2024/04/15 01:14:35;;;;;;;;;;;;;;;16.02;57.32;101357.28;5387303;26;20379;-85
2024/04/15 01:17:00;;;;;;;;;;;;;;;16.05;56.72;101356.28;5387060;26;20243;-86
2024/04/15 01:19:26;;;;;;;;;;;;;;;16.04;56.61;101357.22;5418655;26;20416;-85
2024/04/15 01:21:51;;;;;;;;;;;;;;;15.89;56.79;101350.28;5387075;26;20002;-86
2024/04/15 01:24:17;;;;;;;;;;;;;;;15.85;57.17;101354.88;5386662;26;19935;-85
2024/04/15 01:26:46;;;;;;;;;;;;;;;15.75;57.43;101351.97;5387263;26;19925;-85
2024/04/15 01:29:12;;;;;;;;;;;;;;;15.78;57.16;101343.94;5358002;26;20287;-85
2024/04/15 01:31:37;;;;;;;;;;;;;;;15.75;57.55;101344.13;5387091;26;19931;-85
2024/04/15 01:34:03;;;;;;;;;;;;;;;15.76;57.74;101347.56;5418443;26;19936;-85
2024/04/15 01:36:28;;;;;;;;;;;;;;;15.80;57.68;101335.19;5386676;26;19924;-85
2024/04/15 01:38:53;;;;;;;;;;;;;;;15.68;58.34;101332.38;5386718;26;20354;-85
2024/04/15 01:41:19;;;;;;;;;;;;;;;15.67;58.23;101328.09;5387015;26;20349;-85
2024/04/15 01:43:44;;;;;;;;;;;;;;;15.57;58.33;101328.69;5386945;26;19928;-85
2024/04/15 01:46:09;;;;;;;;;;;;;;;15.63;58.38;101326.59;5357547;26;20425;-85
2024/04/15 01:48:35;;;;;;;;;;;;;;;15.65;58.06;101326.50;5387095;26;20351;-85
2024/04/15 01:51:00;;;;;;;;;;;;;;;15.57;57.80;101331.31;5386337;26;19936;-85
2024/04/15 01:53:25;;;;;;;;;;;;;;;15.35;58.13;101322.13;5386826;26;20027;-85
2024/04/15 01:55:51;;;;;;;;;;;;;;;15.41;58.76;101323.50;5386688;26;19932;-85
2024/04/15 01:58:16;;;;;;;;;;;;;;;15.42;58.82;101330.41;5386732;26;19994;-86
2024/04/15 02:00:41;;;;;;;;;;;;;;;15.40;58.68;101316.63;5386634;26;20235;-85
2024/04/15 02:03:07;;;;;;;;;;;;;;;15.24;59.24;101318.44;5386436;26;20281;-86
2024/04/15 02:05:32;;;;;;;;;;;;;;;15.19;59.79;101324.75;5386647;26;19936;-85
2024/04/15 02:07:57;;;;;;;;;;;;;;;15.17;61.36;101323.16;5386443;26;19924;-85
2024/04/15 02:10:23;;;;;;;;;;;;;;;15.20;61.53;101323.00;5386625;26;19925;-85
2024/04/15 02:12:48;;;;;;;;;;;;;;;15.21;61.40;101317.69;5386458;26;19933;-85
2024/04/15 02:15:15;;;;;;;;;;;;;;;15.13;63.24;101322.50;5386514;26;20358;-85
2024/04/15 02:17:40;;;;;;;;;;;;;;;15.07;64.05;101314.19;5417673;26;19925;-86
2024/04/15 02:20:06;;;;;;;;;;;;;;;15.07;64.88;101315.03;5356897;26;19931;-86
2024/04/15 02:22:31;;;;;;;;;;;;;;;15.01;66.76;101309.31;5417571;26;19932;-86
2024/04/15 02:24:56;;;;;;;;;;;;;;;14.98;68.00;101318.16;5386453;26;19936;-85
2024/04/15 02:27:22;;;;;;;;;;;;;;;14.93;68.95;101314.97;5386234;26;19932;-86
2024/04/15 02:29:47;;;;;;;;;;;;;;;14.88;70.18;101311.78;5386280;26;19925;-86
2024/04/15 02:32:12;;;;;;;;;;;;;;;14.93;70.14;101307.97;5386347;26;19944;-85
2024/04/15 02:34:38;;;;;;;;;;;;;;;14.88;69.83;101309.19;5385972;26;19932;-85
2024/04/15 02:37:03;;;;;;;;;;;;;;;14.87;69.90;101297.91;5417298;26;20359;-85
2024/04/15 02:39:28;;;;;;;;;;;;;;;14.88;69.81;101298.75;5386150;26;20350;-85
2024/04/15 02:41:54;;;;;;;;;;;;;;;14.95;69.79;101305.31;5386284;26;20358;-85
2024/04/15 02:44:19;;;;;;;;;;;;;;;14.96;69.75;101296.56;5356872;26;20338;-85
2024/04/15 02:46:45;;;;;;;;;;;;;;;14.93;69.83;101294.13;5356913;26;20255;-85
2024/04/15 02:49:10;;;;;;;;;;;;;;;14.92;69.91;101295.03;5384692;26;19925;-86
2024/04/15 02:51:35;;;;;;;;;;;;;;;14.80;68.67;101287.94;5386034;26;19936;-85
2024/04/15 02:54:01;;;;;;;;;;;;;;;14.62;68.01;101288.00;5385965;26;19931;-85
2024/04/15 02:56:26;;;;;;;;;;;;;;;14.55;68.54;101299.72;5385875;26;19953;-86
2024/04/15 02:58:51;;;;;;;;;;;;;;;14.57;68.32;101303.06;5385837;26;19925;-85
2024/04/15 03:01:17;;;;;;;;;;;;;;;14.58;67.57;101306.50;5417126;26;19925;-86
2024/04/15 03:03:42;;;;;;;;;;;;;;;14.44;67.30;101299.41;5385565;26;19988;-84
2024/04/15 03:06:07;;;;;;;;;;;;;;;14.41;67.19;101303.94;5385884;26;19925;-85
2024/04/15 03:08:33;;;;;;;;;;;;;;;14.38;66.64;101309.31;5385887;26;20368;-84
2024/04/15 03:11:07;;;;;;;;;;;;;;;14.39;66.70;101300.59;5385701;26;20300;-82
2024/04/15 03:13:32;;;;;;;;;;;;;;;14.38;66.62;101304.97;5385744;26;19924;-83
2024/04/15 03:15:57;;;;;;;;;;;;;;;14.42;66.41;101298.66;5385668;26;19935;-83
2024/04/15 03:18:23;;;;;;;;;;;;;;;14.45;66.62;101298.50;5416528;26;19932;-83
2024/04/15 03:20:48;;;;;;;;;;;;;;;14.52;65.87;101301.63;5356194;26;19932;-83
2024/04/15 03:23:13;;;;;;;;;;;;;;;14.50;66.50;101293.91;5385457;26;19935;-82
2024/04/15 03:25:39;;;;;;;;;;;;;;;14.54;66.07;101300.59;5417059;26;19932;-82
2024/04/15 03:28:04;;;;;;;;;;;;;;;14.60;66.05;101299.44;5385490;26;19941;-83
2024/04/15 03:30:30;;;;;;;;;;;;;;;14.73;65.41;101299.59;5385526;26;20001;-83
2024/04/15 03:32:55;;;;;;;;;;;;;;;14.81;65.00;101307.84;5384643;26;19934;-83
2024/04/15 03:35:20;;;;;;;;;;;;;;;14.77;65.64;101298.53;5385478;26;19925;-83
2024/04/15 03:37:46;;;;;;;;;;;;;;;14.74;65.44;101296.91;5385420;26;19944;-82
2024/04/15 03:40:11;;;;;;;;;;;;;;;14.76;65.34;101294.25;5385264;26;19933;-83
2024/04/15 03:42:36;;;;;;;;;;;;;;;14.84;65.37;101295.47;5382502;26;19990;-84
2024/04/15 03:45:02;;;;;;;;;;;;;;;14.82;65.50;101293.88;5384715;26;19925;-83
2024/04/15 03:47:27;;;;;;;;;;;;;;;14.72;65.80;101292.72;5384749;26;19925;-84
2024/04/15 03:49:52;;;;;;;;;;;;;;;14.64;66.51;101291.38;5384906;26;20317;-84
2024/04/15 03:52:18;;;;;;;;;;;;;;;14.58;66.84;101289.13;5384828;26;19925;-84
2024/04/15 03:54:44;;;;;;;;;;;;;;;14.54;66.88;101292.81;5384853;26;19931;-84
2024/04/15 03:57:09;;;;;;;;;;;;;;;14.55;67.28;101296.25;5384689;26;19925;-84
2024/04/15 03:59:35;;;;;;;;;;;;;;;14.44;68.06;101294.19;5384912;26;19932;-82
2024/04/15 04:02:01;;;;;;;;;;;;;;;14.50;68.28;101293.91;5417955;26;19933;-83
2024/04/15 04:04:30;;;;;;;;;;;;;;;14.45;68.15;101301.09;5388277;26;19932;-83
2024/04/15 04:06:56;;;;;;;;;;;;;;;14.48;68.17;101298.38;5389295;26;20358;-83
2024/04/15 04:09:21;;;;;;;;;;;;;;;14.47;67.88;101294.09;5358798;26;19933;-83
2024/04/15 04:11:48;;;;;;;;;;;;;;;14.53;67.35;101292.88;5371555;26;20365;-83
2024/04/15 04:14:13;;;;;;;;;;;;;;;14.49;67.18;101296.59;5387006;26;19925;-83
2024/04/15 04:16:40;;;;;;;;;;;;;;;14.33;65.33;101291.34;5381108;26;19932;-86
2024/04/15 04:19:05;;;;;;;;;;;;;;;14.43;64.19;101297.72;5413239;26;20371;-92
2024/04/15 04:21:30;;;;;;;;;;;;;;;14.45;63.43;101300.28;5415702;26;19932;-86
2024/04/15 04:23:57;;;;;;;;;;;;;;;14.32;62.72;101294.88;5383278;26;20359;-89
2024/04/15 04:26:23;;;;;;;;;;;;;;;14.25;62.62;101309.13;5384968;26;19925;-90
2024/04/15 04:28:48;;;;;;;;;;;;;;;14.24;62.54;101302.25;5392629;26;19931;-93
2024/04/15 04:31:13;;;;;;;;;;;;;;;14.15;62.97;101293.16;5383844;26;19933;-91
2024/04/15 04:33:39;;;;;;;;;;;;;;;14.13;63.25;101284.59;5381588;26;19933;-93
2024/04/15 04:36:04;;;;;;;;;;;;;;;14.10;63.77;101289.97;5385800;26;19964;-84
2024/04/15 04:38:29;;;;;;;;;;;;;;;14.07;64.34;101285.78;5397093;26;20247;-91
2024/04/15 04:41:01;;;;;;;;;;;;;;;14.03;64.97;101286.84;5371297;26;19934;-92
2024/04/15 04:43:26;;;;;;;;;;;;;;;14.05;65.21;101292.81;5391069;26;19931;-87
2024/04/15 04:45:52;;;;;;;;;;;;;;;14.15;64.69;101287.09;5418047;26;19924;-91
2024/04/15 04:48:17;;;;;;;;;;;;;;;14.23;64.91;101290.16;5381044;26;20327;-88
2024/04/15 04:50:42;;;;;;;;;;;;;;;14.16;65.76;101289.66;5423674;26;20021;-83
2024/04/15 04:53:08;;;;;;;;;;;;;;;14.18;65.67;101292.19;5454877;26;20358;-84
2024/04/15 04:55:36;;;;;;;;;;;;;;;14.19;66.22;101288.66;5392048;26;19995;-81
2024/04/15 04:58:05;;;;;;;;;;;;;;;14.21;66.19;101286.78;5387116;26;19925;-87
2024/04/15 05:00:31;;;;;;;;;;;;;;;14.28;65.69;101280.34;5392381;26;19932;-91
2024/04/15 05:02:56;;;;;;;;;;;;;;;14.38;65.28;101278.09;5385973;26;19949;-92
2024/04/15 05:05:21;;;;;;;;;;;;;;;14.38;66.39;101283.28;5456926;26;19924;-85
2024/04/15 05:07:46;;;;;;;;;;;;;;;14.45;66.64;101279.44;5453675;26;20007;-84
2024/04/15 05:10:13;;;;;;;;;;;;;;;14.57;66.41;101276.19;5359520;26;20407;-87
2024/04/15 05:12:38;;;;;;;;;;;;;;;14.66;66.47;101272.25;5386087;26;19956;-85
2024/04/15 05:15:03;;;;;;;;;;;;;;;14.78;66.44;101275.00;5384661;26;19925;-89
2024/04/15 05:17:29;;;;;;;;;;;;;;;14.91;65.20;101277.75;5395717;26;19926;-85
2024/04/15 05:19:54;;;;;;;;;;;;;;;15.00;64.29;101277.22;5374040;26;19924;-83
2024/04/15 05:22:19;;;;;;;;;;;;;;;15.02;63.93;101272.75;5441094;26;19926;-89
2024/04/15 05:24:45;;;;;;;;;;;;;;;15.11;63.83;101263.56;5393478;26;19925;-90
2024/04/15 05:27:10;;;;;;;;;;;;;;;15.17;63.36;101268.44;5418085;26;19998;-93
2024/04/15 05:29:35;;;;;;;;;;;;;;;15.12;62.29;101266.09;5384061;26;19925;-88
2024/04/15 05:32:01;;;;;;;;;;;;;;;15.14;62.60;101264.25;5386201;26;19925;-91
2024/04/15 05:34:26;;;;;;;;;;;;;;;15.25;62.50;101260.19;5358469;26;19994;-90
2024/04/15 05:36:51;;;;;;;;;;;;;;;15.27;62.14;101259.16;5387486;26;19932;-88
2024/04/15 05:39:17;;;;;;;;;;;;;;;15.36;62.38;101255.19;5356771;26;19925;-89
2024/04/15 05:41:43;;;;;;;;;;;;;;;15.54;62.42;101254.09;5382660;21;19927;-90
2024/04/15 05:44:08;;;;;;;;;;;;;;;15.66;62.56;101252.53;5311763;27;19938;-91
2024/04/15 05:46:35;;;;;;;;;;;;;;;15.78;60.63;101249.19;5283048;27;19938;-90
2024/04/15 05:49:01;;;;;;;;;;;;;;;15.78;60.23;101244.81;5314808;27;19926;-93
2024/04/15 05:51:26;;;;;;;;;;;;;;;15.92;59.85;101248.34;5316473;27;19973;-94
2024/04/15 05:53:51;;;;;;;;;;;;;;;16.04;59.51;101255.44;5286299;27;19945;-87
2024/04/15 05:56:17;;;;;;;;;;;;;;;16.03;59.57;101249.38;5282093;27;19926;-85
2024/04/15 05:58:42;;;;;;;;;;;;;;;15.97;58.79;101248.91;5282046;27;20364;-82
2024/04/15 06:01:07;;;;;;;;;;;;;;;15.99;58.68;101249.63;5279188;27;20077;-90
2024/04/15 06:03:33;;;;;;;;;;;;;;;16.15;57.81;101253.00;5270255;27;19926;-84
2024/04/15 06:05:58;;;;;;;;;;;;;;;16.18;56.92;101250.19;5312166;27;19933;-91
2024/04/15 06:08:23;;;;;;;;;;;;;;;16.21;56.95;101246.53;5284457;27;19927;-81
2024/04/15 06:10:49;;;;;;;;;;;;;;;16.25;56.15;101240.19;5308420;27;20402;-88
2024/04/15 06:13:14;;;;;;;;;;;;;;;16.30;56.77;101244.19;5312772;27;20418;-90
2024/04/15 06:15:39;;;;;;;;;;;;;;;16.45;56.89;101245.00;5281729;27;19926;-92
2024/04/15 06:18:05;;;;;;;;;;;;;;;16.69;56.49;101240.00;5259382;27;19931;-88
2024/04/15 06:20:30;;;;;;;;;;;;;;;16.80;55.99;101239.28;5276753;27;19935;-91
2024/04/15 06:22:55;;;;;;;;;;;;;;;16.98;56.50;101242.47;5310355;27;20355;-89
2024/04/15 06:25:21;;;;;;;;;;;;;;;17.06;55.51;101243.66;5268564;27;19937;-93
2024/04/15 06:27:46;;;;;;;;;;;;;;;17.26;57.59;101239.72;5296124;27;19927;-92
2024/04/15 06:30:11;;;;;;;;;;;;;;;17.39;55.42;101235.31;5253195;27;19937;-82
2024/04/15 06:32:37;;;;;;;;;;;;;;;17.46;55.83;101233.97;5307880;27;19935;-83
2024/04/15 06:35:02;;;;;;;;;;;;;;;17.52;56.29;101231.91;5288236;27;20511;-91
2024/04/15 06:37:28;;;;;;;;;;;;;;;17.63;56.47;101234.59;5312047;27;19988;-85
2024/04/15 06:39:53;;;;;;;;;;;;;;;17.76;55.85;101232.84;5313829;27;19927;-92
2024/04/15 06:42:18;;;;;;;;;;;;;;;17.75;55.29;101224.16;5277855;27;19934;-92
2024/04/15 06:44:46;;;;;;;;;;;;;;;17.74;54.73;101232.13;5262242;27;19934;-93
2024/04/15 06:47:11;;;;;;;;;;;;;;;17.77;54.17;101226.66;5312341;27;19935;-91
2024/04/15 06:49:36;;;;;;;;;;;;;;;17.84;53.61;101227.09;5282162;27;21736;-89
2024/04/15 06:52:02;;;;;;;;;;;;;;;17.96;53.23;101221.81;5282004;27;19985;-87
2024/04/15 06:54:27;;;;;;;;;;;;;;;17.97;53.00;101230.50;5282035;27;19941;-90
2024/04/15 06:56:52;;;;;;;;;;;;;;;18.12;52.94;101228.59;5311853;27;19934;-91
2024/04/15 06:59:18;;;;;;;;;;;;;;;18.32;52.70;101222.78;5280751;27;20004;-85
2024/04/15 07:01:43;;;;;;;;;;;;;;;18.52;51.86;101222.16;5263910;27;20237;-86
2024/04/15 07:04:09;;;;;;;;;;;;;;;18.52;51.54;101216.09;5291126;27;19997;-91
2024/04/15 07:06:34;;;;;;;;;;;;;;;18.60;51.55;101216.38;5276969;27;20001;-86
2024/04/15 07:08:59;;;;;;;;;;;;;;;18.74;51.77;101215.38;5311119;27;19926;-90
2024/04/15 07:11:25;;;;;;;;;;;;;;;18.89;50.85;101212.47;5281036;27;19933;-90
2024/04/15 07:13:50;;;;;;;;;;;;;;;19.02;50.43;101211.53;5269512;27;19926;-87
2024/04/15 07:16:15;;;;;;;;;;;;;;;19.18;50.31;101205.03;5312461;27;19996;-92
2024/04/15 07:18:41;;;;;;;;;;;;;;;19.34;50.03;101209.09;5284598;27;19930;-88
2024/04/15 07:21:06;;;;;;;;;;;;;;;19.54;50.18;101221.53;5276026;27;19977;-89
2024/04/15 07:23:31;;;;;;;;;;;;;;;19.67;49.01;101197.84;5313294;27;19934;-92
2024/04/15 07:26:00;;;;;;;;;;;;;;;19.73;49.29;101202.59;5305683;27;19935;-89
2024/04/15 07:28:25;;;;;;;;;;;;;;;19.84;49.42;101199.13;5299938;27;19927;-91
2024/04/15 07:30:58;;;;;;;;;;;;;;;19.98;49.50;101196.25;5281667;27;20333;-90
2024/04/15 07:33:23;;;;;;;;;;;;;;;20.14;48.98;101191.44;5279982;27;20026;-90
2024/04/15 07:35:52;;;;;;;;;;;;;;;20.26;49.01;101190.47;5309997;27;19950;-86
2024/04/15 07:38:18;;;;;;;;;;;;;;;20.47;49.13;101189.72;5280304;27;20375;-87
2024/04/15 07:40:43;;;;;;;;;;;;;;;20.56;48.57;101191.59;5280630;27;19926;-89
2024/04/15 07:43:09;;;;;;;;;;;;;;;20.58;48.09;101189.66;5310398;26;19938;-88
2024/04/15 07:45:34;;;;;;;;;;;;;;;20.70;48.22;101182.56;5309158;27;20444;-89
2024/04/15 07:48:00;;;;;;;;;;;;;;;20.87;47.83;101187.25;5292973;27;19927;-91
2024/04/15 07:50:25;;;;;;;;;;;;;;;21.03;47.15;101181.53;5306486;27;20014;-87
2024/04/15 07:52:50;;;;;;;;;;;;;;;21.17;46.76;101183.84;5310226;27;19930;-85
2024/04/15 07:55:16;;;;;;;;;;;;;;;21.40;46.80;101182.75;5246434;27;19934;-86
2024/04/15 07:57:41;;;;;;;;;;;;;;;21.60;43.99;101183.66;5287356;27;20862;-84
2024/04/15 08:00:09;;;;;;;;;;;;;;;21.67;44.83;101178.72;5310803;27;20844;-93
2024/04/15 08:02:34;;;;;;;;;;;;;;;21.75;45.02;101176.25;5280291;27;19938;-89
2024/04/15 08:05:00;;;;;;;;;;;;;;;21.89;44.99;101173.22;5277420;27;20006;-84
2024/04/15 08:07:25;;;;;;;;;;;;;;;21.91;44.60;101178.34;5299611;27;19938;-92
2024/04/15 08:09:50;;;;;;;;;;;;;;;22.11;45.09;101166.91;5318187;27;19933;-83
2024/04/15 08:12:16;;;;;;;;;;;;;;;22.33;42.26;101171.97;5310344;27;20000;-87
2024/04/15 08:14:41;;;;;;;;;;;;;;;22.40;42.66;101169.56;5310458;27;19926;-83
2024/04/15 08:17:06;;;;;;;;;;;;;;;22.53;41.53;101164.88;5309506;27;19934;-89
2024/04/15 08:19:32;;;;;;;;;;;;;;;22.66;41.30;101167.22;5278518;27;19927;-86
2024/04/15 08:21:57;;;;;;;;;;;;;;;22.86;40.59;101160.16;5309313;27;20231;-84
2024/04/15 08:24:22;;;;;;;;;;;;;;;23.06;40.94;101158.31;5297328;27;19927;-86
2024/04/15 08:26:48;;;;;;;;;;;;;;;23.25;40.43;101154.78;5303281;27;19927;-87
2024/04/15 08:29:14;;;;;;;;;;;;;;;23.38;39.50;101148.19;5309471;26;19934;-88
2024/04/15 08:31:39;;;;;;;;;;;;;;;23.45;39.63;101151.09;5278672;27;20304;-90
2024/04/15 08:34:04;;;;;;;;;;;;;;;23.58;39.83;101145.47;5276726;27;19927;-90
2024/04/15 08:36:30;;;;;;;;;;;;;;;23.73;39.42;101142.22;5279708;27;20362;-92
2024/04/15 08:38:55;;;;;;;;;;;;;;;23.76;39.49;101143.72;5275048;27;19934;-87
2024/04/15 08:41:21;;;;;;;;;;;;;;;23.78;38.40;101136.47;5277198;27;19934;-86
2024/04/15 08:43:47;;;;;;;;;;;;;;;23.89;38.29;101135.44;5246618;27;19933;-93
2024/04/15 08:46:15;;;;;;;;;;;;;;;23.91;37.97;101130.84;5279935;27;20351;-91
2024/04/15 08:48:40;;;;;;;;;;;;;;;23.99;37.92;101130.91;5283144;27;19993;-88
2024/04/15 08:51:05;;;;;;;;;;;;;;;24.08;37.23;101129.19;5283233;27;19939;-89
2024/04/15 08:53:31;;;;;;;;;;;;;;;24.26;35.74;101117.63;5276561;27;19930;-91
2024/04/15 08:55:56;;;;;;;;;;;;;;;24.37;34.96;101118.41;5255155;27;19934;-88
2024/04/15 08:58:21;;;;;;;;;;;;;;;24.47;35.16;101106.75;5283994;27;19926;-93
2024/04/15 09:00:47;;;;;;;;;;;;;;;24.48;34.07;101100.53;5284574;27;19926;-86
2024/04/15 09:03:12;;;;;;;;;;;;;;;24.71;34.99;101097.38;5299089;27;19937;-88
2024/04/15 09:05:39;;;;;;;;;;;;;;;24.88;34.56;101097.31;5312831;27;19927;-93
2024/04/15 09:10:49;;;;;;;;;;;;;;;25.23;33.48;101089.41;5285230;27;20448;-86
2024/04/15 09:13:15;;;;;;;;;;;;;;;25.35;34.27;101083.66;5290764;27;19927;-89
2024/04/15 09:15:40;;;;;;;;;;;;;;;25.38;35.44;101083.34;5310576;27;19955;-91
2024/04/15 09:18:06;;;;;;;;;;;;;;;25.55;34.12;101076.25;5311481;27;19934;-88
2024/04/15 09:20:31;;;;;;;;;;;;;;;25.68;34.18;101066.06;5280710;27;19926;-84
2024/04/15 09:22:57;;;;;;;;;;;;;;;25.99;35.04;101076.06;5290354;27;19927;-90
2024/04/15 09:25:22;;;;;;;;;;;;;;;26.02;34.10;101065.94;5291256;27;19997;-92
2024/04/15 09:27:47;;;;;;;;;;;;;;;26.07;35.19;101057.50;5282809;27;19997;-92
2024/04/15 09:30:13;;;;;;;;;;;;;;;26.16;34.84;101055.69;5317540;27;19996;-87
2024/04/15 09:32:38;;;;;;;;;;;;;;;26.33;34.49;101053.84;5280232;27;20373;-92
2024/04/15 09:35:04;;;;;;;;;;;;;;;26.44;34.06;101054.34;5283779;27;20014;-92
2024/04/15 09:37:34;;;;;;;;;;;;;;;26.32;32.97;101050.38;5292871;27;19953;-84
2024/04/15 09:39:59;;;;;;;;;;;;;;;26.41;32.65;101044.09;5262426;27;19951;-85
2024/04/15 09:42:25;;;;;;;;;;;;;;;26.49;33.63;101033.47;5260128;26;19951;-87
2024/04/15 09:44:50;;;;;;;;;;;;;;;26.64;33.96;101030.09;5290289;27;19926;-90
2024/04/15 09:47:16;;;;;;;;;;;;;;;26.87;34.49;101017.78;5284361;27;19934;-84
2024/04/15 09:49:46;;;;;;;;;;;;;;;27.13;33.47;101013.03;5312498;27;20324;-88
2024/04/15 09:52:21;;;;;;;;;;;;;;;27.28;32.86;101005.16;5282035;27;20228;-85
2024/04/15 09:54:46;;;;;;;;;;;;;;;27.55;31.23;101006.50;5282374;27;19934;-88
2024/04/15 09:57:11;;;;;;;;;;;;;;;27.63;31.08;100993.16;5281798;27;20037;-90
2024/04/15 09:59:38;;;;;;;;;;;;;;;27.80;31.56;100998.38;5312441;27;20360;-91
2024/04/15 10:02:04;;;;;;;;;;;;;;;27.88;31.41;100990.34;5281781;27;20011;-91
2024/04/15 10:04:30;;;;;;;;;;;;;;;28.10;31.37;100989.47;5278674;27;19933;-92
2024/04/15 10:06:58;;;;;;;;;;;;;;;28.31;31.88;100983.47;5268994;27;19927;-87
2024/04/15 10:09:23;;;;;;;;;;;;;;;28.37;30.99;100985.41;5259419;27;19927;-90
2024/04/15 10:11:49;;;;;;;;;;;;;;;28.58;31.67;100969.53;5312269;27;19934;-93
2024/04/15 10:14:14;;;;;;;;;;;;;;;28.59;32.20;100967.69;5283303;27;20331;-87
2024/04/15 10:16:40;;;;;;;;;;;;;;;28.72;31.88;100956.41;5310724;27;19941;-83
2024/04/15 10:19:05;;;;;;;;;;;;;;;28.74;30.48;100943.72;5280592;27;19934;-81
2024/04/15 10:21:30;;;;;;;;;;;;;;;28.82;31.83;100944.47;5281236;27;19954;-87
2024/04/15 10:23:55;;;;;;;;;;;;;;;28.97;31.04;100938.28;5309463;27;19938;-84
2024/04/15 10:26:23;;;;;;;;;;;;;;;29.14;31.53;100937.06;5298911;26;19973;-92
2024/04/15 10:28:48;;;;;;;;;;;;;;;29.21;30.77;100929.97;5281854;27;19938;-88
2024/04/15 10:31:14;;;;;;;;;;;;;;;29.25;30.76;100925.06;5281135;27;19934;-89
2024/04/15 10:33:48;;;;;;;;;;;;;;;29.40;31.03;100924.00;5281486;27;19933;-82
2024/04/15 10:36:14;;;;;;;;;;;;;;;29.61;31.38;100925.03;5281563;27;19926;-87
2024/04/15 10:38:47;;;;;;;;;;;;;;;29.71;30.21;100914.88;5312347;26;19926;-88
2024/04/15 10:41:13;;;;;;;;;;;;;;;29.86;30.99;100912.91;5280889;27;20431;-87
2024/04/15 10:43:38;;;;;;;;;;;;;;;30.01;29.99;100909.34;5311784;26;19939;-83
2024/04/15 10:46:03;;;;;;;;;;;;;;;30.23;29.78;100900.25;5281649;27;19997;-85
2024/04/15 10:48:29;;;;;;;;;;;;;;;30.56;29.23;100898.56;5281411;27;20317;-86
2024/04/15 10:50:54;;;;;;;;;;;;;;;30.81;29.39;100898.06;5311439;27;20264;-91
2024/04/15 10:53:19;;;;;;;;;;;;;;;30.88;28.58;100885.56;5281457;27;19926;-90
2024/04/15 10:55:45;;;;;;;;;;;;;;;31.01;27.99;100890.09;5278223;27;19926;-85
2024/04/15 10:58:10;;;;;;;;;;;;;;;31.24;28.71;100884.41;5278141;27;19926;-84
2024/04/15 11:00:35;;;;;;;;;;;;;;;31.41;27.32;100880.31;5279997;27;20252;-86
2024/04/15 11:03:05;;;;;;;;;;;;;;;31.74;26.43;100872.25;5263594;27;19934;-94
2024/04/15 11:05:30;;;;;;;;;;;;;;;32.01;24.48;100872.25;5283655;27;19935;-91
2024/04/15 11:07:56;;;;;;;;;;;;;;;32.15;24.90;100866.66;5281237;27;19926;-87
2024/04/15 11:10:21;;;;;;;;;;;;;;;32.34;25.12;100864.97;5280424;27;19927;-91
2024/04/15 11:12:53;;;;;;;;;;;;;;;32.38;24.65;100854.66;5281363;27;19934;-93
2024/04/15 11:15:18;;;;;;;;;;;;;;;32.42;23.90;100855.88;5279469;27;20668;-84
2024/04/15 11:17:53;;;;;;;;;;;;;;;32.48;23.56;100849.69;5308402;27;19927;-85
2024/04/15 11:20:19;;;;;;;;;;;;;;;32.54;23.14;100844.28;5281559;27;20005;-90
2024/04/15 11:22:45;;;;;;;;;;;;;;;32.70;23.21;100840.28;5278944;27;19934;-91
2024/04/15 11:25:10;;;;;;;;;;;;;;;32.89;23.51;100837.72;5280735;27;20006;-88
2024/04/15 11:27:36;;;;;;;;;;;;;;;32.99;23.82;100835.38;5279020;27;19927;-87
2024/04/15 11:30:01;;;;;;;;;;;;;;;33.15;22.63;100824.13;5278887;27;19926;-91
2024/04/15 11:32:27;;;;;;;;;;;;;;;33.23;21.99;100821.16;5279769;27;19934;-91
2024/04/15 11:34:52;;;;;;;;;;;;;;;33.41;22.56;100811.56;5281456;27;19938;-91
2024/04/15 11:37:18;;;;;;;;;;;;;;;33.37;22.07;100811.19;5282574;27;19926;-91
2024/04/15 11:39:43;;;;;;;;;;;;;;;33.46;23.09;100791.09;5282464;27;20479;-88
2024/04/15 11:42:09;;;;;;;;;;;;;;;33.52;21.90;100781.31;5263343;27;19943;-92
2024/04/15 11:44:37;;;;;;;;;;;;;;;33.63;23.23;100784.13;5241204;27;19927;-86
2024/04/15 11:47:02;;;;;;;;;;;;;;;33.59;23.00;100769.50;5242949;27;19927;-88
2024/04/15 11:49:28;;;;;;;;;;;;;;;33.55;22.69;100772.84;5246828;27;19935;-89
2024/04/15 11:51:53;;;;;;;;;;;;;;;33.67;22.40;100758.47;5246831;27;20261;-85
2024/04/15 11:54:18;;;;;;;;;;;;;;;33.97;23.33;100759.59;5276058;27;19997;-83
2024/04/15 11:56:44;;;;;;;;;;;;;;;33.98;21.17;100754.00;5246431;27;19930;-86
2024/04/15 11:59:09;;;;;;;;;;;;;;;33.58;18.39;100749.06;5246148;27;20261;-84
2024/04/15 12:01:35;;;;;;;;;;;;;;;33.74;19.06;100736.94;5250658;27;20251;-83
2024/04/15 12:04:00;;;;;;;;;;;;;;;33.47;18.01;100740.97;5264644;27;19927;-83
2024/04/15 12:06:25;;;;;;;;;;;;;;;33.11;17.15;100734.47;5246372;27;19927;-91
2024/04/15 12:08:50;;;;;;;;;;;;;;;33.00;18.34;100735.19;5253912;27;19943;-92
2024/04/15 12:11:19;;;;;;;;;;;;;;;33.16;18.02;100718.56;5243830;27;19939;-86
2024/04/15 12:13:44;;;;;;;;;;;;;;;33.35;17.96;100712.22;5230552;27;19935;-87
2024/04/15 12:16:10;;;;;;;;;;;;;;;33.46;17.81;100704.47;5198871;27;20361;-85
2024/04/15 12:18:35;;;;;;;;;;;;;;;33.28;17.90;100695.31;5212869;27;19956;-87
2024/04/15 12:21:01;;;;;;;;;;;;;;;33.22;18.03;100690.03;5212778;27;20361;-88
2024/04/15 12:23:26;;;;;;;;;;;;;;;32.99;18.21;100691.50;5244603;27;20006;-89
2024/04/15 12:25:51;;;;;;;;;;;;;;;33.11;18.21;100680.88;5279381;27;19927;-89
2024/04/15 12:28:17;;;;;;;;;;;;;;;33.29;17.72;100670.16;5276282;27;19947;-85
2024/04/15 12:30:42;;;;;;;;;;;;;;;33.26;17.34;100665.25;5277620;27;19927;-89